createdAt,value
2023-06-29T00:02:34.491Z,6.35
2023-06-29T00:05:58.942Z,8.00
2023-06-29T00:09:23.127Z,6.50
2023-06-29T00:12:46.081Z,5.32
2023-06-29T00:16:08.681Z,6.18
2023-06-29T00:19:32.069Z,5.90
2023-06-29T00:22:56.448Z,5.20
2023-06-29T00:26:19.665Z,5.03
2023-06-29T00:29:43.948Z,3.90
2023-06-29T00:33:06.859Z,5.82
2023-06-29T00:36:30.098Z,7.07
2023-06-29T00:39:54.776Z,6.20
2023-06-29T00:43:18.652Z,4.63
2023-06-29T00:46:42.029Z,5.47
2023-06-29T00:50:05.897Z,6.50
2023-06-29T00:53:28.650Z,5.65
2023-06-29T00:56:52.796Z,6.07
2023-06-29T01:00:17.239Z,4.88
2023-06-29T01:03:41.997Z,6.43
2023-06-29T01:07:10.466Z,5.50
2023-06-29T01:10:36.348Z,4.43
2023-06-29T01:14:02.499Z,5.15
2023-06-29T01:17:28.816Z,4.35
2023-06-29T01:20:52.407Z,6.57
2023-06-29T01:24:17.807Z,6.07
2023-06-29T01:27:44.980Z,6.43
2023-06-29T01:31:08.137Z,6.18
2023-06-29T01:34:33.054Z,7.40
2023-06-29T01:38:01.004Z,6.55
2023-06-29T01:41:26.040Z,7.10
2023-06-29T01:44:51.023Z,6.88
2023-06-29T01:48:14.696Z,7.22
2023-06-29T01:51:37.652Z,10.00
2023-06-29T01:55:00.641Z,9.68
2023-06-29T01:58:23.479Z,10.95
2023-06-29T02:01:48.051Z,7.63
2023-06-29T02:05:10.939Z,7.38
2023-06-29T02:08:33.983Z,10.38
2023-06-29T02:11:56.838Z,7.95
2023-06-29T02:15:19.700Z,8.80
2023-06-29T02:18:43.694Z,9.93
2023-06-29T02:22:06.635Z,9.10
2023-06-29T02:25:30.021Z,8.55
2023-06-29T02:28:53.515Z,10.30
2023-06-29T02:32:16.140Z,9.20
2023-06-29T02:35:40.614Z,9.60
2023-06-29T02:39:03.376Z,11.80
2023-06-29T02:42:26.438Z,9.30
2023-06-29T02:45:49.084Z,8.15
2023-06-29T02:49:13.589Z,10.82
2023-06-29T02:52:37.467Z,9.13
2023-06-29T02:56:00.219Z,10.32
2023-06-29T02:59:23.893Z,9.27
2023-06-29T03:02:46.764Z,12.70
2023-06-29T03:06:09.914Z,9.15
2023-06-29T03:09:34.502Z,7.80
2023-06-29T03:12:57.459Z,10.02
2023-06-29T03:16:20.546Z,8.77
2023-06-29T03:19:43.590Z,10.88
2023-06-29T03:23:06.752Z,10.88
2023-06-29T03:26:31.247Z,13.05
2023-06-29T03:29:55.745Z,8.93
2023-06-29T03:33:18.605Z,11.85
2023-06-29T03:36:41.666Z,9.32
2023-06-29T03:40:04.417Z,8.45
2023-06-29T03:43:28.818Z,9.80
2023-06-29T03:46:51.666Z,8.75
2023-06-29T03:50:14.719Z,9.77
2023-06-29T03:53:37.584Z,13.07
2023-06-29T03:57:00.851Z,11.85
2023-06-29T04:00:25.040Z,15.80
2023-06-29T04:03:48.539Z,16.80
2023-06-29T04:07:11.497Z,12.10
2023-06-29T04:10:34.890Z,11.48
2023-06-29T04:13:57.996Z,11.57
2023-06-29T04:17:22.760Z,12.55
2023-06-29T04:20:45.442Z,11.13
2023-06-29T04:24:09.124Z,14.10
2023-06-29T04:27:35.758Z,12.02
2023-06-29T04:30:59.027Z,10.15
2023-06-29T04:34:23.440Z,9.52
2023-06-29T04:37:46.385Z,9.90
2023-06-29T04:41:09.035Z,9.13
2023-06-29T04:44:33.824Z,9.73
2023-06-29T04:47:58.177Z,11.40
2023-06-29T04:51:23.047Z,13.45
2023-06-29T04:54:45.983Z,9.60
2023-06-29T04:58:09.085Z,12.25
2023-06-29T05:01:32.167Z,12.27
2023-06-29T05:04:55.095Z,10.85
2023-06-29T05:08:19.258Z,12.07
2023-06-29T05:11:42.523Z,8.93
2023-06-29T05:15:05.803Z,9.82
2023-06-29T05:18:28.661Z,12.45
2023-06-29T05:21:52.037Z,10.52
2023-06-29T05:25:16.705Z,12.00
2023-06-29T05:28:39.435Z,9.27
2023-06-29T05:32:02.236Z,8.63
2023-06-29T05:35:24.966Z,10.25
2023-06-29T05:38:48.132Z,8.50
2023-06-29T05:42:12.316Z,7.25
2023-06-29T05:45:34.898Z,7.30
2023-06-29T05:48:57.631Z,7.38
2023-06-29T05:52:20.678Z,8.93
2023-06-29T05:55:43.651Z,7.25
2023-06-29T05:59:08.042Z,7.35
2023-06-29T06:02:31.305Z,6.82
2023-06-29T06:05:54.667Z,6.18
2023-06-29T06:09:19.157Z,8.40
2023-06-29T06:12:42.348Z,7.05
2023-06-29T06:16:07.220Z,6.22
2023-06-29T06:19:29.984Z,6.35
2023-06-29T06:22:52.944Z,8.25
2023-06-29T06:26:15.917Z,6.95
2023-06-29T06:29:38.968Z,6.72
2023-06-29T06:33:03.575Z,7.50
2023-06-29T06:36:27.433Z,6.57
2023-06-29T06:39:50.094Z,5.90
2023-06-29T06:43:12.836Z,6.20
2023-06-29T06:46:35.735Z,6.40
2023-06-29T06:50:00.293Z,20.05
2023-06-29T06:53:23.455Z,8.60
2023-06-29T06:56:46.319Z,7.78
2023-06-29T07:00:14.495Z,19.80
2023-06-29T07:07:01.130Z,7.50
2023-06-29T07:10:23.883Z,24.60
2023-06-29T07:13:47.048Z,17.02
2023-06-29T07:17:10.236Z,7.07
2023-06-29T07:27:26.045Z,8.50
2023-06-29T07:30:48.737Z,6.82
2023-06-29T07:34:11.676Z,6.45
2023-06-29T07:37:35.533Z,6.28
2023-06-29T07:41:00.029Z,6.30
2023-06-29T07:44:22.899Z,6.43
2023-06-29T07:47:45.833Z,7.93
2023-06-29T07:51:08.403Z,6.47
2023-06-29T07:54:31.047Z,5.25
2023-06-29T08:01:21.194Z,6.10
2023-06-29T08:08:10.372Z,6.57
2023-06-29T08:11:33.420Z,7.55
2023-06-29T08:14:57.804Z,7.25
2023-06-29T08:18:20.460Z,7.05
2023-06-29T08:21:43.422Z,5.68
2023-06-29T08:25:06.481Z,5.47
2023-06-29T08:28:29.453Z,8.82
2023-06-29T08:31:53.951Z,4.97
2023-06-29T08:35:17.224Z,7.72
2023-06-29T08:38:40.366Z,5.78
2023-06-29T08:42:06.859Z,5.05
2023-06-29T08:45:30.884Z,10.87
2023-06-29T08:48:55.585Z,5.80
2023-06-29T08:52:20.097Z,5.90
2023-06-29T08:55:44.989Z,5.88
2023-06-29T08:59:08.558Z,5.00
2023-06-29T09:02:31.969Z,6.10
2023-06-29T09:05:57.443Z,6.57
2023-06-29T09:09:20.618Z,5.97
2023-06-29T09:12:44.485Z,5.00
2023-06-29T09:16:08.319Z,5.32
2023-06-29T09:19:32.247Z,6.15
2023-06-29T09:22:56.948Z,5.47
2023-06-29T09:26:20.528Z,6.00
2023-06-29T09:29:51.992Z,6.78
2023-06-29T09:33:17.195Z,6.05
2023-06-29T09:36:39.923Z,4.90
2023-06-29T09:40:07.405Z,7.32
2023-06-29T09:43:31.632Z,5.75
2023-06-29T09:50:22.591Z,6.07
2023-06-29T09:53:48.471Z,5.60
2023-06-29T09:57:13.813Z,4.75
2023-06-29T10:00:37.477Z,5.47
2023-06-29T10:04:00.522Z,5.43
2023-06-29T10:07:24.314Z,8.02
2023-06-29T10:10:48.274Z,4.35
2023-06-29T10:14:16.243Z,5.43
2023-06-29T10:17:47.339Z,5.40
2023-06-29T10:21:10.863Z,5.20
2023-06-29T10:24:37.307Z,4.75
2023-06-29T10:28:00.270Z,5.72
2023-06-29T10:31:34.313Z,5.30
2023-06-29T10:35:07.280Z,5.43
2023-06-29T10:38:34.637Z,6.95
2023-06-29T10:41:57.388Z,5.20
2023-06-29T10:45:36.426Z,4.93
2023-06-29T10:49:04.611Z,5.53
2023-06-29T10:52:27.210Z,6.32
2023-06-29T10:55:54.721Z,6.00
2023-06-29T10:59:19.113Z,5.00
2023-06-29T11:02:42.243Z,4.35
2023-06-29T11:06:08.413Z,5.00
2023-06-29T11:09:32.098Z,4.00
2023-06-29T11:12:56.243Z,3.78
2023-06-29T11:16:20.317Z,4.30
2023-06-29T11:19:47.215Z,5.72
2023-06-29T11:23:11.415Z,5.88
2023-06-29T11:26:34.453Z,5.00
2023-06-29T11:29:58.020Z,6.18
2023-06-29T11:33:33.792Z,4.50
2023-06-29T11:37:09.610Z,5.65
2023-06-29T11:40:39.671Z,6.47
2023-06-29T11:44:03.467Z,6.28
2023-06-29T11:47:33.381Z,5.15
2023-06-29T11:51:02.092Z,5.40
2023-06-29T11:54:25.427Z,6.00
2023-06-29T11:57:55.257Z,6.13
2023-06-29T12:01:20.406Z,6.45
2023-06-29T12:04:57.069Z,5.05
2023-06-29T12:08:22.016Z,4.60
2023-06-29T12:11:45.206Z,4.60
2023-06-29T12:15:18.115Z,6.25
2023-06-29T12:18:40.784Z,6.82
2023-06-29T12:22:04.296Z,4.90
2023-06-29T12:25:26.981Z,3.83
2023-06-29T12:28:49.834Z,5.10
2023-06-29T12:32:14.319Z,5.05
2023-06-29T12:35:37.512Z,5.53
2023-06-29T12:38:59.931Z,6.88
2023-06-29T12:42:22.784Z,7.95
2023-06-29T12:45:45.752Z,5.55
2023-06-29T12:49:09.725Z,6.85
2023-06-29T12:52:33.095Z,6.68
2023-06-29T12:55:56.265Z,5.75
2023-06-29T12:59:19.117Z,8.20
2023-06-29T13:02:42.295Z,9.68
2023-06-29T13:06:06.577Z,7.63
2023-06-29T13:09:29.429Z,3.90
2023-06-29T13:12:51.987Z,4.80
2023-06-29T13:16:15.140Z,5.75
2023-06-29T13:19:37.799Z,6.00
2023-06-29T13:23:02.498Z,5.15
2023-06-29T13:26:25.043Z,5.95
2023-06-29T13:29:48.109Z,6.07
2023-06-29T13:33:10.650Z,4.95
2023-06-29T13:36:33.505Z,7.85
2023-06-29T13:39:57.797Z,4.35
2023-06-29T13:43:20.748Z,3.00
2023-06-29T13:46:44.184Z,4.63
2023-06-29T13:50:07.802Z,4.03
2023-06-29T13:53:30.755Z,4.10
2023-06-29T13:56:55.448Z,4.93
2023-06-29T14:00:19.231Z,7.15
2023-06-29T14:03:42.375Z,5.43
2023-06-29T14:07:05.573Z,8.73
2023-06-29T14:10:29.136Z,4.82
2023-06-29T14:13:53.946Z,4.50
2023-06-29T14:17:22.651Z,5.28
2023-06-29T14:20:45.885Z,5.75
2023-06-29T14:24:08.437Z,6.63
2023-06-29T14:27:31.291Z,5.43
2023-06-29T14:30:55.503Z,5.43
2023-06-29T14:34:18.627Z,6.20
2023-06-29T14:37:41.506Z,5.05
2023-06-29T14:41:05.797Z,5.75
2023-06-29T14:44:28.620Z,6.00
2023-06-29T14:47:52.634Z,5.75
2023-06-29T14:51:15.495Z,6.85
2023-06-29T14:54:38.839Z,5.20
2023-06-29T14:58:02.074Z,5.72
2023-06-29T15:01:25.021Z,6.95
2023-06-29T15:04:49.674Z,6.47
2023-06-29T15:08:12.431Z,4.70
2023-06-29T15:11:35.289Z,8.38
2023-06-29T15:14:58.242Z,4.50
2023-06-29T15:18:21.514Z,6.07
2023-06-29T15:21:45.498Z,4.00
2023-06-29T15:25:09.928Z,4.03
2023-06-29T15:28:33.043Z,4.68
2023-06-29T15:31:56.051Z,5.22
2023-06-29T15:35:19.193Z,3.63
2023-06-29T15:38:43.968Z,5.15
2023-06-29T15:42:07.450Z,3.88
2023-06-29T15:45:30.808Z,3.33
2023-06-29T15:48:54.099Z,5.13
2023-06-29T15:52:17.327Z,5.85
2023-06-29T15:55:41.763Z,6.68
2023-06-29T15:59:04.797Z,5.18
2023-06-29T16:02:29.165Z,4.55
2023-06-29T16:05:52.152Z,5.45
2023-06-29T16:09:15.630Z,5.30
2023-06-29T16:12:40.018Z,4.18
2023-06-29T16:16:02.880Z,3.88
2023-06-29T16:19:26.047Z,3.88
2023-06-29T16:22:49.338Z,5.03
2023-06-29T16:26:13.170Z,4.72
2023-06-29T16:29:39.006Z,6.47
2023-06-29T16:33:02.122Z,7.03
2023-06-29T16:36:24.845Z,4.68
2023-06-29T16:39:47.765Z,4.25
2023-06-29T16:43:10.325Z,4.30
2023-06-29T16:46:35.399Z,5.20
2023-06-29T16:49:58.183Z,5.93
2023-06-29T16:53:20.834Z,6.82
2023-06-29T16:56:43.485Z,4.05
2023-06-29T17:00:08.328Z,4.57
2023-06-29T17:03:32.936Z,6.00
2023-06-29T17:06:55.770Z,3.58
2023-06-29T17:10:18.489Z,8.25
2023-06-29T17:13:42.344Z,4.03
2023-06-29T17:17:05.399Z,4.18
2023-06-29T17:20:30.032Z,4.85
2023-06-29T17:23:54.371Z,3.80
2023-06-29T17:27:17.481Z,5.47
2023-06-29T17:30:40.149Z,4.43
2023-06-29T17:34:03.293Z,3.63
2023-06-29T17:37:27.488Z,3.67
2023-06-29T17:40:50.547Z,5.15
2023-06-29T17:44:13.387Z,3.60
2023-06-29T17:47:36.599Z,5.55
2023-06-29T17:50:59.636Z,4.55
2023-06-29T17:54:24.344Z,4.18
2023-06-29T17:57:47.691Z,4.40
2023-06-29T18:01:10.760Z,5.22
2023-06-29T18:04:33.973Z,6.45
2023-06-29T18:07:57.592Z,5.15
2023-06-29T18:11:21.714Z,5.55
2023-06-29T18:14:44.742Z,7.75
2023-06-29T18:18:08.177Z,4.95
2023-06-29T18:21:31.180Z,6.70
2023-06-29T18:24:55.675Z,4.32
2023-06-29T18:28:20.161Z,5.05
2023-06-29T18:31:42.710Z,3.92
2023-06-29T18:35:06.511Z,5.53
2023-06-29T18:38:29.334Z,4.60
2023-06-29T18:41:52.404Z,4.78
2023-06-29T18:45:16.328Z,5.85
2023-06-29T18:48:38.864Z,4.03
2023-06-29T18:52:00.807Z,5.38
2023-06-29T18:55:22.862Z,3.83
2023-06-29T18:58:44.823Z,4.45
2023-06-29T19:02:08.484Z,5.00
2023-06-29T19:05:30.291Z,5.57
2023-06-29T19:08:52.412Z,5.18
2023-06-29T19:12:14.120Z,3.90
2023-06-29T19:15:36.121Z,4.05
2023-06-29T19:23:44.148Z,3.95
2023-06-29T19:27:07.205Z,4.75
2023-06-29T19:30:29.258Z,4.50
2023-06-29T19:33:51.007Z,4.40
2023-06-29T19:37:12.711Z,5.35
2023-06-29T19:40:35.930Z,5.40
2023-06-29T19:43:58.241Z,5.20
2023-06-29T19:47:20.107Z,5.10
2023-06-29T19:50:41.896Z,6.78
2023-06-29T19:54:03.621Z,5.10
2023-06-29T19:57:26.955Z,4.43
2023-06-29T20:00:48.858Z,5.85
2023-06-29T20:04:10.875Z,5.22
2023-06-29T20:07:32.940Z,4.63
2023-06-29T20:10:55.263Z,5.20
2023-06-29T20:14:18.643Z,5.47
2023-06-29T20:17:40.989Z,3.67
2023-06-29T20:21:02.952Z,5.95
2023-06-29T20:24:25.205Z,5.85
2023-06-29T20:27:47.354Z,6.03
2023-06-29T20:31:10.869Z,4.57
2023-06-29T20:34:32.836Z,4.97
2023-06-29T20:37:55.558Z,5.38
2023-06-29T20:41:17.634Z,4.22
2023-06-29T20:44:39.521Z,6.32
2023-06-29T20:48:02.970Z,4.22
2023-06-29T20:51:24.951Z,4.60
2023-06-29T20:54:46.728Z,5.82
2023-06-29T20:58:10.668Z,5.32
2023-06-29T21:01:32.745Z,5.82
2023-06-29T21:04:57.386Z,4.18
2023-06-29T21:08:19.338Z,6.50
2023-06-29T21:11:42.354Z,5.03
2023-06-29T21:15:05.027Z,4.97
2023-06-29T21:18:28.194Z,4.45
2023-06-29T21:21:52.195Z,5.57
2023-06-29T21:25:14.702Z,4.55
2023-06-29T21:28:37.325Z,4.95
2023-06-29T21:32:03.929Z,4.93
2023-06-29T21:35:26.640Z,4.13
2023-06-29T21:38:51.291Z,5.40
2023-06-29T21:42:13.503Z,4.68
2023-06-29T21:45:35.292Z,5.10
2023-06-29T21:48:57.382Z,5.47
2023-06-29T21:52:19.222Z,4.45
2023-06-29T21:55:43.123Z,5.15
2023-06-29T21:59:04.899Z,3.75
2023-06-29T22:02:26.813Z,3.90
2023-06-29T22:05:48.818Z,5.47
2023-06-29T22:09:10.587Z,3.75
2023-06-29T22:12:39.718Z,4.85
2023-06-29T22:16:01.314Z,4.38
2023-06-29T22:19:24.895Z,4.07
2023-06-29T22:22:46.903Z,4.88
2023-06-29T22:26:08.594Z,5.40
2023-06-29T22:29:34.738Z,6.18
2023-06-29T22:32:56.637Z,4.15
2023-06-29T22:36:19.245Z,4.35
2023-06-29T22:39:41.116Z,4.65
2023-06-29T22:43:02.944Z,4.40
2023-06-29T22:46:27.808Z,4.75
2023-06-29T22:49:52.054Z,4.97
2023-06-29T22:53:13.842Z,7.53
2023-06-29T22:56:35.486Z,5.70
2023-06-29T22:59:58.332Z,6.35
2023-06-29T23:03:22.176Z,5.70
2023-06-29T23:06:47.684Z,5.38
2023-06-29T23:10:10.151Z,7.93
2023-06-29T23:13:41.583Z,6.00
2023-06-29T23:17:04.178Z,6.25
2023-06-29T23:20:27.795Z,4.90
2023-06-29T23:23:49.606Z,5.40
2023-06-29T23:27:11.311Z,5.85
2023-06-29T23:30:33.897Z,5.32
2023-06-29T23:33:55.995Z,4.55
2023-06-29T23:37:19.346Z,5.18
2023-06-29T23:40:42.008Z,5.53
2023-06-29T23:44:06.612Z,7.13
2023-06-29T23:47:30.537Z,4.65
2023-06-29T23:50:52.293Z,5.43
2023-06-29T23:54:16.607Z,4.78
2023-06-29T23:57:39.188Z,5.60
